Saigon Express — VRBT7 — position and weather

sailwx.info

Track history (hours):
 
Tides and Currents Weather Stations Pressure Air Temp Water Temp Dewpoint Dewpoint Depression Visibility Wind Speed Wind Dir Waves Ship Positions

Saigon Express

Last reported at 2014-Aug-31 22:18 UTC. Time now 2014-Sep-01 18:53 UTC.
Position N 39°27' W 026°02'.

Length 260 m; draft 12 m.

Type: Ship (hazmat cat A). MMSI: 477106800.

Date/timePositionNaut miles runAvg speedWind from/ knotsBaromVisibWave heightAir tempDewpointWater temp
2014-Aug-31 22:18N 39°27' W 026°02'7616.0
2014-Aug-31 17:31N 39°44' W 027°38'2016.2
2014-Aug-31 16:19N 39°49' W 028°03'1215.9
2014-Aug-31 15:33N 39°51' W 028°18'1616.1
2014-Aug-31 14:33N 39°55' W 028°39'1915.9
2014-Aug-31 13:23N 39°60' W 029°02'1416.5
2014-Aug-31 12:33N 40°03' W 029°20'1816.2
2014-Aug-31 11:27N 40°07' W 029°42'1616.1
2014-Aug-31 10:27N 40°10' W 030°03'1817.9
2014-Aug-31 09:28N 40°10' W 030°26'1415.8
2014-Aug-31 08:33N 40°10' W 030°45'2015.8
2014-Aug-31 07:17N 40°10' W 031°11'  
2014-Aug-24 03:22N 32°06' W 081°01'7 6.7
2014-Aug-24 02:24N 32°08' W 081°08'0 0.1
2014-Aug-23 23:12N 32°08' W 081°08'0 0.0
2014-Aug-23 20:06N 32°08' W 081°08'117 5.8
2014-Aug-23 00:05N 32°29' W 078°52'10117.0
2014-Aug-22 18:08N 33°27' W 077°13'1017.3
2014-Aug-22 17:33N 33°33' W 077°04'2018.5
2014-Aug-22 16:30N 33°43' W 076°44'1617.5
2014-Aug-22 15:33N 33°49' W 076°25'1717.1
2014-Aug-22 14:33N 34°03' W 076°14'2017.6
2014-Aug-22 13:25N 34°18' W 075°57'2117.5
2014-Aug-22 12:12N 34°32' W 075°38'1117.5
2014-Aug-22 11:33N 34°39' W 075°28'1817.2
2014-Aug-22 10:30N 34°52' W 075°11'8816.7
2014-Aug-22 05:13N 36°17' W 074°45'1218.4
2014-Aug-22 04:33N 36°24' W 074°58'1918.2
2014-Aug-22 03:29N 36°34' W 075°18'1515.8
2014-Aug-22 02:33N 36°42' W 075°34'1615.4
2014-Aug-22 01:33N 36°51' W 075°50'1311.3
2014-Aug-22 00:21N 36°58' W 076°04'1113.0
2014-Aug-21 23:31N 36°60' W 076°18'  
Track history (hours):
 
Tides and Currents Weather Stations Pressure Air Temp Water Temp Dewpoint Dewpoint Depression Visibility Wind Speed Wind Dir Waves Ship Positions

Saigon Express

Last reported at 2014-Aug-31 22:18 UTC. Time now 2014-Sep-01 18:53 UTC.
Position N 39°27' W 026°02'.

Length 260 m; draft 12 m.

Type: Ship (hazmat cat A). MMSI: 477106800.

Date/timePositionNaut miles runAvg speedWind from/ knotsBaromVisibWave heightAir tempDewpointWater temp
2014-Aug-31 22:18N 39°27' W 026°02'7616.0
2014-Aug-31 17:31N 39°44' W 027°38'2016.2
2014-Aug-31 16:19N 39°49' W 028°03'1215.9
2014-Aug-31 15:33N 39°51' W 028°18'1616.1
2014-Aug-31 14:33N 39°55' W 028°39'1915.9
2014-Aug-31 13:23N 39°60' W 029°02'1416.5
2014-Aug-31 12:33N 40°03' W 029°20'1816.2
2014-Aug-31 11:27N 40°07' W 029°42'1616.1
2014-Aug-31 10:27N 40°10' W 030°03'1817.9
2014-Aug-31 09:28N 40°10' W 030°26'1415.8
2014-Aug-31 08:33N 40°10' W 030°45'2015.8
2014-Aug-31 07:17N 40°10' W 031°11'  
2014-Aug-24 03:22N 32°06' W 081°01'7 6.7
2014-Aug-24 02:24N 32°08' W 081°08'0 0.1
2014-Aug-23 23:12N 32°08' W 081°08'0 0.0
2014-Aug-23 20:06N 32°08' W 081°08'117 5.8
2014-Aug-23 00:05N 32°29' W 078°52'10117.0
2014-Aug-22 18:08N 33°27' W 077°13'1017.3
2014-Aug-22 17:33N 33°33' W 077°04'2018.5
2014-Aug-22 16:30N 33°43' W 076°44'1617.5
2014-Aug-22 15:33N 33°49' W 076°25'1717.1
2014-Aug-22 14:33N 34°03' W 076°14'2017.6
2014-Aug-22 13:25N 34°18' W 075°57'2117.5
2014-Aug-22 12:12N 34°32' W 075°38'1117.5
2014-Aug-22 11:33N 34°39' W 075°28'1817.2
2014-Aug-22 10:30N 34°52' W 075°11'8816.7
2014-Aug-22 05:13N 36°17' W 074°45'1218.4
2014-Aug-22 04:33N 36°24' W 074°58'1918.2
2014-Aug-22 03:29N 36°34' W 075°18'1515.8
2014-Aug-22 02:33N 36°42' W 075°34'1615.4
2014-Aug-22 01:33N 36°51' W 075°50'1311.3
2014-Aug-22 00:21N 36°58' W 076°04'1113.0
2014-Aug-21 23:31N 36°60' W 076°18'  

Dump ship's entire track history